Archival Weather

Norman Y Mineta San Jose Intl

San Jose, California (KSJC)

Report from: Sunday, February 11, 2024 7:53 PM PST
Current time: Monday, June 24, 2024 3:28 AM PDT

Current weather – Weather history – Daily summaries
Weather forecast

Temperature12.2°C (54.0°F)
Dew point7.8°C (46.0°F)
Winds 4 kts (2.1 m/s, 4.6 mph) West-Northwest (290°)
Visibility10 mi. (16.1 km)
Clouds Sky clear
Altimeter30.20 in.Hg (1023 mB)
Relative humidity74 %
Density altitude-500 ft. (-153 m)
Sea-level pressure102.3 kPa (1023 mB, 30.20 in.Hg)
Remarks Automated weather observing station with precipitation discriminator
Flight conditions Visual Meteorological Conditions
Raw dataKSJC 120353Z 29004KT 10SM CLR 12/08 A3020 RMK AO2 SLP227 T01220078
An error has occurred. This application may no longer respond until reloaded. Reload 🗙